EDT,Max TemperatureF,Mean TemperatureF,Min TemperatureF,Max Dew PointF,MeanDew PointF,Min DewpointF,Max Humidity, Mean Humidity, Min Humidity, Max Sea Level PressureIn, Mean Sea Level PressureIn, Min Sea Level PressureIn, Max VisibilityMiles, Mean VisibilityMiles, Min VisibilityMiles, Max Wind SpeedMPH, Mean Wind SpeedMPH, Max Gust SpeedMPH,PrecipitationIn, CloudCover, Events, WindDirDegrees
2011-10-1,64,58,53,57,47,39,100,67,40,29.91,29.82,29.74,10,10,10,13,5,18,0.00,0,,289
2011-10-2,64,54,44,46,42,37,93,69,37,30.06,29.98,29.93,10,10,10,16,5,22,0.00,1,,268
2011-10-3,69,54,39,48,41,36,100,68,33,30.12,30.08,30.04,10,10,8,15,3,23,0.00,0,,254
2011-10-4,69,58,46,52,47,45,100,72,43,30.22,30.18,30.14,10,10,10,13,3,17,0.00,1,,307
2011-10-5,75,60,44,54,50,45,100,77,47,30.26,30.22,30.17,10,10,8,10,2,,0.00,0,,341
2011-10-6,75,62,48,57,51,45,100,71,34,30.31,30.27,30.23,10,10,7,15,4,21,0.00,0,,28
2011-10-7,75,62,50,57,52,46,94,76,47,30.41,30.37,30.33,10,10,9,12,6,20,0.00,0,,27
2011-10-8,77,64,50,57,54,48,100,78,47,30.47,30.43,30.38,10,10,9,16,8,21,0.00,0,,26
2011-10-9,78,68,57,64,60,55,100,79,57,30.39,30.34,30.28,10,10,10,21,11,33,0.00,3,,46
2011-10-10,71,66,60,70,63,57,100,91,82,30.27,30.16,30.07,10,10,7,16,10,17,0.01,0,,31
2011-10-11,71,68,64,66,63,61,100,88,73,30.06,29.98,29.92,10,10,5,21,9,30,0.26,7,,50
2011-10-12,77,72,66,75,70,64,100,96,89,29.91,29.84,29.78,10,8,2,13,6,,0.81,5,Thunderstorm,73
2011-10-13,80,73,66,73,70,64,100,90,74,29.81,29.73,29.64,10,8,1,15,6,23,0.00,5,Thunderstorm,178
2011-10-14,75,68,60,66,60,43,100,81,33,29.71,29.67,29.60,10,8,0,16,7,26,0.01,3,,235
2011-10-15,78,63,48,54,49,39,100,66,27,29.98,29.93,29.88,10,10,8,15,6,21,0.00,0,,243
2011-10-16,75,60,44,54,45,39,100,63,29,30.17,30.08,30.03,10,10,3,9,2,,0.00,0,,264
2011-10-17,84,68,53,57,53,50,94,65,35,30.03,29.97,29.88,10,10,9,14,8,18,0.00,0,,220
2011-10-18,82,68,55,70,62,54,100,83,54,29.94,29.87,29.80,10,6,0,14,5,21,0.00,3,,194
2011-10-19,80,73,66,75,71,66,100,93,78,29.61,29.45,29.34,10,9,3,18,10,23,0.40,7,,163
2011-10-20,64,55,46,50,44,43,87,66,45,29.90,29.76,29.57,10,10,10,20,14,30,0.00,1,,227
2011-10-21,66,54,41,50,44,41,100,73,45,30.10,30.05,30.00,10,10,5,7,4,,0.00,0,,238
2011-10-22,66,54,41,54,46,39,100,78,49,30.13,30.09,30.05,10,10,5,10,1,,0.00,3,,340
2011-10-23,69,56,44,54,50,43,100,80,49,30.14,30.10,30.07,10,10,5,9,3,,0.00,0,,358
2011-10-24,69,60,50,55,50,46,100,78,43,30.12,30.07,30.01,10,7,2,10,3,17,0.00,1,,336
2011-10-25,69,58,46,50,46,39,100,70,33,30.26,30.18,30.10,10,10,7,15,3,22,0.00,0,,347
2011-10-26,75,58,42,55,48,39,100,75,41,30.19,30.10,29.97,10,10,3,13,3,17,0.00,0,,218
2011-10-27,78,66,55,59,55,54,100,73,42,29.97,29.90,29.80,10,10,10,21,10,28,0.00,0,,223
2011-10-28,60,56,50,55,47,43,88,73,63,30.11,30.04,29.90,10,10,10,18,9,25,0.00,6,,22
2011-10-29,51,48,46,50,46,39,100,90,66,29.98,29.90,29.85,10,7,1,15,6,24,0.00,8,,303
2011-10-30,57,44,30,37,33,28,100,73,36,30.32,30.24,30.12,10,10,8,14,3,20,0.00,0,,6
2011-10-31,60,48,35,54,42,34,94,79,62,30.36,30.26,30.12,10,10,7,16,5,20,0.07,5,,25